sensor_id;sensor_type;location;lat;lon;timestamp;temperature;humidity
28614;DHT22;15806;53.548;9.964;2023-01-16T00:00:20;6.70;99.90
28614;DHT22;15806;53.548;9.964;2023-01-16T00:02:01;6.80;99.90
28614;DHT22;15806;53.548;9.964;2023-01-16T00:03:41;6.80;99.90
28614;DHT22;15806;53.548;9.964;2023-01-16T00:05:22;6.80;99.90
28614;DHT22;15806;53.548;9.964;2023-01-16T00:07:02;6.80;99.90
28614;DHT22;15806;53.548;9.964;2023-01-16T00:08:43;6.80;99.90
28614;DHT22;15806;53.548;9.964;2023-01-16T00:10:24;6.80;99.90
28614;DHT22;15806;53.548;9.964;2023-01-16T00:12:04;6.80;99.90
28614;DHT22;15806;53.548;9.964;2023-01-16T00:13:45;6.90;99.90
28614;DHT22;15806;53.548;9.964;2023-01-16T00:15:26;6.90;99.90
28614;DHT22;15806;53.548;9.964;2023-01-16T00:17:06;6.90;99.90
28614;DHT22;15806;53.548;9.964;2023-01-16T00:18:47;7.00;99.90
28614;DHT22;15806;53.548;9.964;2023-01-16T00:20:27;6.90;99.90
28614;DHT22;15806;53.548;9.964;2023-01-16T00:22:08;6.90;99.90
28614;DHT22;15806;53.548;9.964;2023-01-16T00:23:48;6.90;99.90
28614;DHT22;15806;53.548;9.964;2023-01-16T00:25:29;7.00;99.90
28614;DHT22;15806;53.548;9.964;2023-01-16T00:27:09;7.00;99.90
28614;DHT22;15806;53.548;9.964;2023-01-16T00:28:53;7.00;99.90
28614;DHT22;15806;53.548;9.964;2023-01-16T00:30:35;7.00;99.90
28614;DHT22;15806;53.548;9.964;2023-01-16T00:32:18;7.00;99.90
28614;DHT22;15806;53.548;9.964;2023-01-16T00:33:59;7.00;99.90
28614;DHT22;15806;53.548;9.964;2023-01-16T00:35:39;7.00;99.90
28614;DHT22;15806;53.548;9.964;2023-01-16T00:37:20;7.00;99.90
28614;DHT22;15806;53.548;9.964;2023-01-16T00:39:00;7.00;99.90
28614;DHT22;15806;53.548;9.964;2023-01-16T00:40:41;7.00;99.90
28614;DHT22;15806;53.548;9.964;2023-01-16T00:42:21;7.00;99.90
28614;DHT22;15806;53.548;9.964;2023-01-16T00:44:02;7.00;99.90
28614;DHT22;15806;53.548;9.964;2023-01-16T00:45:43;7.00;99.90
28614;DHT22;15806;53.548;9.964;2023-01-16T00:47:23;7.00;99.90
28614;DHT22;15806;53.548;9.964;2023-01-16T00:49:04;6.90;99.90
28614;DHT22;15806;53.548;9.964;2023-01-16T00:50:44;6.80;99.90
28614;DHT22;15806;53.548;9.964;2023-01-16T00:52:25;6.80;99.90
28614;DHT22;15806;53.548;9.964;2023-01-16T00:54:05;6.80;99.90
28614;DHT22;15806;53.548;9.964;2023-01-16T00:55:46;6.80;99.90
28614;DHT22;15806;53.548;9.964;2023-01-16T00:57:26;6.70;99.90
28614;DHT22;15806;53.548;9.964;2023-01-16T00:59:07;6.70;99.90
28614;DHT22;15806;53.548;9.964;2023-01-16T01:00:47;6.70;99.90
28614;DHT22;15806;53.548;9.964;2023-01-16T01:02:28;6.60;99.90
28614;DHT22;15806;53.548;9.964;2023-01-16T01:04:09;6.60;99.90
28614;DHT22;15806;53.548;9.964;2023-01-16T01:05:49;6.60;99.90
28614;DHT22;15806;53.548;9.964;2023-01-16T01:07:30;6.50;99.90
28614;DHT22;15806;53.548;9.964;2023-01-16T01:09:10;6.50;99.90
28614;DHT22;15806;53.548;9.964;2023-01-16T01:10:51;6.50;99.90
28614;DHT22;15806;53.548;9.964;2023-01-16T01:12:31;6.50;99.90
28614;DHT22;15806;53.548;9.964;2023-01-16T01:14:12;6.50;99.90
28614;DHT22;15806;53.548;9.964;2023-01-16T01:15:53;6.50;99.90
28614;DHT22;15806;53.548;9.964;2023-01-16T01:17:33;6.50;99.90
28614;DHT22;15806;53.548;9.964;2023-01-16T01:19:14;6.50;99.90
28614;DHT22;15806;53.548;9.964;2023-01-16T01:20:54;6.50;99.90
28614;DHT22;15806;53.548;9.964;2023-01-16T01:22:35;6.40;99.90
28614;DHT22;15806;53.548;9.964;2023-01-16T01:24:17;6.50;99.90
28614;DHT22;15806;53.548;9.964;2023-01-16T01:25:57;6.50;99.90
28614;DHT22;15806;53.548;9.964;2023-01-16T01:27:38;6.50;99.90
28614;DHT22;15806;53.548;9.964;2023-01-16T01:29:18;6.40;99.90
28614;DHT22;15806;53.548;9.964;2023-01-16T01:31:05;6.40;99.90
28614;DHT22;15806;53.548;9.964;2023-01-16T01:32:46;6.40;99.90
28614;DHT22;15806;53.548;9.964;2023-01-16T01:34:27;6.40;99.90
28614;DHT22;15806;53.548;9.964;2023-01-16T01:36:08;6.40;99.90
28614;DHT22;15806;53.548;9.964;2023-01-16T01:37:49;6.40;99.90
28614;DHT22;15806;53.548;9.964;2023-01-16T01:39:30;6.40;99.90
28614;DHT22;15806;53.548;9.964;2023-01-16T01:41:13;6.40;99.90
28614;DHT22;15806;53.548;9.964;2023-01-16T01:42:54;6.40;99.90
28614;DHT22;15806;53.548;9.964;2023-01-16T01:44:51;6.40;99.90
28614;DHT22;15806;53.548;9.964;2023-01-16T01:46:43;6.40;99.90
28614;DHT22;15806;53.548;9.964;2023-01-16T01:48:29;6.40;99.90
28614;DHT22;15806;53.548;9.964;2023-01-16T01:52:11;6.50;99.90
28614;DHT22;15806;53.548;9.964;2023-01-16T01:54:01;6.50;99.90
28614;DHT22;15806;53.548;9.964;2023-01-16T01:55:44;6.50;99.90
28614;DHT22;15806;53.548;9.964;2023-01-16T01:57:34;6.40;99.90
28614;DHT22;15806;53.548;9.964;2023-01-16T01:59:27;6.50;99.90
28614;DHT22;15806;53.548;9.964;2023-01-16T02:01:09;6.50;99.90
28614;DHT22;15806;53.548;9.964;2023-01-16T02:03:10;6.50;99.90
28614;DHT22;15806;53.548;9.964;2023-01-16T02:04:52;6.50;99.90
28614;DHT22;15806;53.548;9.964;2023-01-16T02:06:44;6.50;99.90
28614;DHT22;15806;53.548;9.964;2023-01-16T02:08:30;6.50;99.90
28614;DHT22;15806;53.548;9.964;2023-01-16T02:10:29;6.50;99.90
28614;DHT22;15806;53.548;9.964;2023-01-16T02:12:15;6.50;99.90
28614;DHT22;15806;53.548;9.964;2023-01-16T02:14:00;6.50;99.90
28614;DHT22;15806;53.548;9.964;2023-01-16T02:15:41;6.50;99.90
28614;DHT22;15806;53.548;9.964;2023-01-16T02:17:21;6.50;99.90
28614;DHT22;15806;53.548;9.964;2023-01-16T02:19:02;6.50;99.90
28614;DHT22;15806;53.548;9.964;2023-01-16T02:20:58;6.50;99.90
28614;DHT22;15806;53.548;9.964;2023-01-16T02:33:51;6.40;99.90
28614;DHT22;15806;53.548;9.964;2023-01-16T02:37:45;6.40;99.90
28614;DHT22;15806;53.548;9.964;2023-01-16T02:41:51;6.30;99.90
28614;DHT22;15806;53.548;9.964;2023-01-16T02:46:06;6.30;99.90
28614;DHT22;15806;53.548;9.964;2023-01-16T02:49:58;6.30;99.90
28614;DHT22;15806;53.548;9.964;2023-01-16T02:51:49;6.30;99.90
28614;DHT22;15806;53.548;9.964;2023-01-16T02:53:45;6.30;99.90
28614;DHT22;15806;53.548;9.964;2023-01-16T02:55:48;6.30;99.90
28614;DHT22;15806;53.548;9.964;2023-01-16T02:57:35;6.40;99.90
28614;DHT22;15806;53.548;9.964;2023-01-16T02:59:17;6.30;99.90
28614;DHT22;15806;53.548;9.964;2023-01-16T03:00:59;6.30;99.90
28614;DHT22;15806;53.548;9.964;2023-01-16T03:02:40;6.30;99.90
28614;DHT22;15806;53.548;9.964;2023-01-16T03:04:46;6.30;99.90
28614;DHT22;15806;53.548;9.964;2023-01-16T03:08:29;6.30;99.90
28614;DHT22;15806;53.548;9.964;2023-01-16T03:12:35;6.30;99.90
28614;DHT22;15806;53.548;9.964;2023-01-16T03:18:10;6.30;99.90
28614;DHT22;15806;53.548;9.964;2023-01-16T03:23:52;6.40;99.90
28614;DHT22;15806;53.548;9.964;2023-01-16T03:25:47;6.40;99.90
28614;DHT22;15806;53.548;9.964;2023-01-16T03:27:38;6.30;99.90
28614;DHT22;15806;53.548;9.964;2023-01-16T03:31:42;6.40;99.90
28614;DHT22;15806;53.548;9.964;2023-01-16T03:35:14;6.40;99.90
28614;DHT22;15806;53.548;9.964;2023-01-16T03:38:48;6.40;99.90
28614;DHT22;15806;53.548;9.964;2023-01-16T03:40:34;6.40;99.90
28614;DHT22;15806;53.548;9.964;2023-01-16T03:42:52;6.30;99.90
28614;DHT22;15806;53.548;9.964;2023-01-16T03:44:38;6.30;99.90
28614;DHT22;15806;53.548;9.964;2023-01-16T03:46:23;6.30;99.90
28614;DHT22;15806;53.548;9.964;2023-01-16T03:48:16;6.30;99.90
28614;DHT22;15806;53.548;9.964;2023-01-16T03:50:05;6.30;99.90
28614;DHT22;15806;53.548;9.964;2023-01-16T03:51:53;6.30;99.90
28614;DHT22;15806;53.548;9.964;2023-01-16T03:53:40;6.30;99.90
28614;DHT22;15806;53.548;9.964;2023-01-16T03:55:41;6.30;99.90
28614;DHT22;15806;53.548;9.964;2023-01-16T03:57:35;6.30;99.90
28614;DHT22;15806;53.548;9.964;2023-01-16T03:59:17;6.30;99.90
28614;DHT22;15806;53.548;9.964;2023-01-16T04:02:51;6.30;99.90
28614;DHT22;15806;53.548;9.964;2023-01-16T04:05:18;6.30;99.90
28614;DHT22;15806;53.548;9.964;2023-01-16T04:07:08;6.20;99.90
28614;DHT22;15806;53.548;9.964;2023-01-16T04:08:51;6.20;99.90
28614;DHT22;15806;53.548;9.964;2023-01-16T04:10:35;6.30;99.90
28614;DHT22;15806;53.548;9.964;2023-01-16T04:12:20;6.30;99.90
28614;DHT22;15806;53.548;9.964;2023-01-16T04:14:03;6.30;99.90
28614;DHT22;15806;53.548;9.964;2023-01-16T04:15:49;6.20;99.90
28614;DHT22;15806;53.548;9.964;2023-01-16T04:17:31;6.30;99.90
28614;DHT22;15806;53.548;9.964;2023-01-16T04:19:13;6.20;99.90
28614;DHT22;15806;53.548;9.964;2023-01-16T04:20:54;6.20;99.90
28614;DHT22;15806;53.548;9.964;2023-01-16T04:22:35;6.20;99.90
28614;DHT22;15806;53.548;9.964;2023-01-16T04:24:16;6.20;99.90
28614;DHT22;15806;53.548;9.964;2023-01-16T04:25:57;6.20;99.90
28614;DHT22;15806;53.548;9.964;2023-01-16T04:27:37;6.20;99.90
28614;DHT22;15806;53.548;9.964;2023-01-16T04:29:18;6.20;99.90
28614;DHT22;15806;53.548;9.964;2023-01-16T04:30:58;6.20;99.90
28614;DHT22;15806;53.548;9.964;2023-01-16T04:32:39;6.20;99.90
28614;DHT22;15806;53.548;9.964;2023-01-16T04:34:19;6.20;99.90
28614;DHT22;15806;53.548;9.964;2023-01-16T04:36:00;6.20;99.90
28614;DHT22;15806;53.548;9.964;2023-01-16T04:37:40;6.20;99.90
28614;DHT22;15806;53.548;9.964;2023-01-16T04:39:21;6.20;99.90
28614;DHT22;15806;53.548;9.964;2023-01-16T04:41:01;6.20;99.90
28614;DHT22;15806;53.548;9.964;2023-01-16T04:42:42;6.20;99.90
28614;DHT22;15806;53.548;9.964;2023-01-16T04:44:23;6.20;99.90
28614;DHT22;15806;53.548;9.964;2023-01-16T04:46:04;6.10;99.90
28614;DHT22;15806;53.548;9.964;2023-01-16T04:47:48;6.20;99.90
28614;DHT22;15806;53.548;9.964;2023-01-16T04:49:29;6.20;99.90
28614;DHT22;15806;53.548;9.964;2023-01-16T04:51:10;6.10;99.90
28614;DHT22;15806;53.548;9.964;2023-01-16T04:52:50;6.10;99.90
28614;DHT22;15806;53.548;9.964;2023-01-16T04:54:31;6.20;99.90
28614;DHT22;15806;53.548;9.964;2023-01-16T04:56:11;6.20;99.90
28614;DHT22;15806;53.548;9.964;2023-01-16T04:57:52;6.20;99.90
28614;DHT22;15806;53.548;9.964;2023-01-16T04:59:32;6.10;99.90
28614;DHT22;15806;53.548;9.964;2023-01-16T05:01:13;6.10;99.90
28614;DHT22;15806;53.548;9.964;2023-01-16T05:02:53;6.10;99.90
28614;DHT22;15806;53.548;9.964;2023-01-16T05:04:34;6.10;99.90
28614;DHT22;15806;53.548;9.964;2023-01-16T05:06:15;6.10;99.90
28614;DHT22;15806;53.548;9.964;2023-01-16T05:07:55;6.10;99.90
28614;DHT22;15806;53.548;9.964;2023-01-16T05:09:36;6.10;99.90
28614;DHT22;15806;53.548;9.964;2023-01-16T05:11:16;6.10;99.90
28614;DHT22;15806;53.548;9.964;2023-01-16T05:12:57;6.10;99.90
28614;DHT22;15806;53.548;9.964;2023-01-16T05:14:37;6.10;99.90
28614;DHT22;15806;53.548;9.964;2023-01-16T05:16:18;6.10;99.90
28614;DHT22;15806;53.548;9.964;2023-01-16T05:17:58;6.10;99.90
28614;DHT22;15806;53.548;9.964;2023-01-16T05:19:39;6.10;99.90
28614;DHT22;15806;53.548;9.964;2023-01-16T05:21:19;6.10;99.90
28614;DHT22;15806;53.548;9.964;2023-01-16T05:23:00;6.10;99.90
28614;DHT22;15806;53.548;9.964;2023-01-16T05:24:40;6.00;99.90
28614;DHT22;15806;53.548;9.964;2023-01-16T05:26:21;6.10;99.90
28614;DHT22;15806;53.548;9.964;2023-01-16T05:28:01;6.10;99.90
28614;DHT22;15806;53.548;9.964;2023-01-16T05:29:42;6.10;99.90
28614;DHT22;15806;53.548;9.964;2023-01-16T05:31:22;6.10;99.90
28614;DHT22;15806;53.548;9.964;2023-01-16T05:33:03;6.10;99.90
28614;DHT22;15806;53.548;9.964;2023-01-16T05:34:43;6.10;99.90
28614;DHT22;15806;53.548;9.964;2023-01-16T05:36:24;6.00;99.90
28614;DHT22;15806;53.548;9.964;2023-01-16T05:38:04;6.00;99.90
28614;DHT22;15806;53.548;9.964;2023-01-16T05:39:45;6.10;99.90
28614;DHT22;15806;53.548;9.964;2023-01-16T05:41:25;6.00;99.90
28614;DHT22;15806;53.548;9.964;2023-01-16T05:43:06;6.10;99.90
28614;DHT22;15806;53.548;9.964;2023-01-16T05:44:50;6.00;99.90
28614;DHT22;15806;53.548;9.964;2023-01-16T05:46:31;6.00;99.90
28614;DHT22;15806;53.548;9.964;2023-01-16T05:48:12;5.90;99.90
28614;DHT22;15806;53.548;9.964;2023-01-16T05:49:52;5.90;99.90
28614;DHT22;15806;53.548;9.964;2023-01-16T05:51:33;5.90;99.90
28614;DHT22;15806;53.548;9.964;2023-01-16T05:53:13;6.00;99.90
28614;DHT22;15806;53.548;9.964;2023-01-16T05:54:54;6.00;99.90
28614;DHT22;15806;53.548;9.964;2023-01-16T05:56:34;6.00;99.90
28614;DHT22;15806;53.548;9.964;2023-01-16T05:58:16;5.90;99.90
28614;DHT22;15806;53.548;9.964;2023-01-16T05:59:56;6.00;99.90
28614;DHT22;15806;53.548;9.964;2023-01-16T06:01:37;5.90;99.90
28614;DHT22;15806;53.548;9.964;2023-01-16T06:03:17;5.80;99.90
28614;DHT22;15806;53.548;9.964;2023-01-16T06:04:58;5.90;99.90
28614;DHT22;15806;53.548;9.964;2023-01-16T06:06:38;6.00;99.90
28614;DHT22;15806;53.548;9.964;2023-01-16T06:08:19;6.00;99.90
28614;DHT22;15806;53.548;9.964;2023-01-16T06:09:59;5.90;99.90
28614;DHT22;15806;53.548;9.964;2023-01-16T06:11:40;5.90;99.90
28614;DHT22;15806;53.548;9.964;2023-01-16T06:13:20;5.90;99.90
28614;DHT22;15806;53.548;9.964;2023-01-16T06:15:01;5.90;99.90
28614;DHT22;15806;53.548;9.964;2023-01-16T06:16:41;5.80;99.90
28614;DHT22;15806;53.548;9.964;2023-01-16T06:18:22;5.90;99.90
28614;DHT22;15806;53.548;9.964;2023-01-16T06:20:03;5.90;99.90
28614;DHT22;15806;53.548;9.964;2023-01-16T06:21:43;5.90;99.90
28614;DHT22;15806;53.548;9.964;2023-01-16T06:23:24;6.00;99.90
28614;DHT22;15806;53.548;9.964;2023-01-16T06:25:05;6.00;99.90
28614;DHT22;15806;53.548;9.964;2023-01-16T06:26:45;5.90;99.90
28614;DHT22;15806;53.548;9.964;2023-01-16T06:28:26;6.00;99.90
28614;DHT22;15806;53.548;9.964;2023-01-16T06:30:07;6.00;99.90
28614;DHT22;15806;53.548;9.964;2023-01-16T06:31:48;6.10;99.90
28614;DHT22;15806;53.548;9.964;2023-01-16T06:33:29;6.00;99.90
28614;DHT22;15806;53.548;9.964;2023-01-16T06:35:10;6.00;99.90
28614;DHT22;15806;53.548;9.964;2023-01-16T06:36:51;6.00;99.90
28614;DHT22;15806;53.548;9.964;2023-01-16T06:38:32;6.00;99.90
28614;DHT22;15806;53.548;9.964;2023-01-16T06:40:13;6.00;99.90
28614;DHT22;15806;53.548;9.964;2023-01-16T06:41:53;6.00;99.90
28614;DHT22;15806;53.548;9.964;2023-01-16T06:43:34;6.10;99.90
28614;DHT22;15806;53.548;9.964;2023-01-16T06:45:17;6.10;99.90
28614;DHT22;15806;53.548;9.964;2023-01-16T06:47:00;6.00;99.90
28614;DHT22;15806;53.548;9.964;2023-01-16T06:48:40;5.90;99.90
28614;DHT22;15806;53.548;9.964;2023-01-16T06:50:21;6.00;99.90
28614;DHT22;15806;53.548;9.964;2023-01-16T06:52:01;6.00;99.90
28614;DHT22;15806;53.548;9.964;2023-01-16T06:53:42;6.10;99.90
28614;DHT22;15806;53.548;9.964;2023-01-16T06:55:22;6.00;99.90
28614;DHT22;15806;53.548;9.964;2023-01-16T06:57:03;6.00;99.90
28614;DHT22;15806;53.548;9.964;2023-01-16T06:58:44;6.00;99.90
28614;DHT22;15806;53.548;9.964;2023-01-16T07:00:24;5.90;99.90
28614;DHT22;15806;53.548;9.964;2023-01-16T07:02:05;6.00;99.90
28614;DHT22;15806;53.548;9.964;2023-01-16T07:03:46;6.00;99.90
28614;DHT22;15806;53.548;9.964;2023-01-16T07:05:28;5.90;99.90
28614;DHT22;15806;53.548;9.964;2023-01-16T07:07:09;5.90;99.90
28614;DHT22;15806;53.548;9.964;2023-01-16T07:08:49;6.00;99.90
28614;DHT22;15806;53.548;9.964;2023-01-16T07:10:30;6.00;99.90
28614;DHT22;15806;53.548;9.964;2023-01-16T07:12:10;5.90;99.90
28614;DHT22;15806;53.548;9.964;2023-01-16T07:13:51;6.00;99.90
28614;DHT22;15806;53.548;9.964;2023-01-16T07:15:33;5.90;99.90
28614;DHT22;15806;53.548;9.964;2023-01-16T07:17:15;5.90;99.90
28614;DHT22;15806;53.548;9.964;2023-01-16T07:18:55;6.00;99.90
28614;DHT22;15806;53.548;9.964;2023-01-16T07:20:36;6.00;99.90
28614;DHT22;15806;53.548;9.964;2023-01-16T07:22:17;6.00;99.90
28614;DHT22;15806;53.548;9.964;2023-01-16T07:24:06;5.90;99.90
28614;DHT22;15806;53.548;9.964;2023-01-16T07:25:49;5.90;99.90
28614;DHT22;15806;53.548;9.964;2023-01-16T07:27:30;6.00;99.90
28614;DHT22;15806;53.548;9.964;2023-01-16T07:29:10;6.00;99.90
28614;DHT22;15806;53.548;9.964;2023-01-16T07:30:51;6.00;99.90
28614;DHT22;15806;53.548;9.964;2023-01-16T07:32:32;5.90;99.90
28614;DHT22;15806;53.548;9.964;2023-01-16T07:34:13;5.90;99.90
28614;DHT22;15806;53.548;9.964;2023-01-16T07:35:53;5.90;99.90
28614;DHT22;15806;53.548;9.964;2023-01-16T07:37:33;5.90;99.90
28614;DHT22;15806;53.548;9.964;2023-01-16T07:39:14;5.80;99.90
28614;DHT22;15806;53.548;9.964;2023-01-16T07:40:54;5.80;99.90
28614;DHT22;15806;53.548;9.964;2023-01-16T07:42:35;5.80;99.90
28614;DHT22;15806;53.548;9.964;2023-01-16T07:44:15;5.80;99.90
28614;DHT22;15806;53.548;9.964;2023-01-16T07:45:56;5.80;99.90
28614;DHT22;15806;53.548;9.964;2023-01-16T07:47:37;5.80;99.90
28614;DHT22;15806;53.548;9.964;2023-01-16T07:49:18;5.80;99.90
28614;DHT22;15806;53.548;9.964;2023-01-16T07:50:59;5.80;99.90
28614;DHT22;15806;53.548;9.964;2023-01-16T07:52:41;5.80;99.90
28614;DHT22;15806;53.548;9.964;2023-01-16T07:54:23;5.80;99.90
28614;DHT22;15806;53.548;9.964;2023-01-16T07:56:04;5.80;99.90
28614;DHT22;15806;53.548;9.964;2023-01-16T07:57:44;5.80;99.90
28614;DHT22;15806;53.548;9.964;2023-01-16T07:59:25;5.90;99.90
28614;DHT22;15806;53.548;9.964;2023-01-16T08:01:05;5.80;99.90
28614;DHT22;15806;53.548;9.964;2023-01-16T08:02:46;5.80;99.90
28614;DHT22;15806;53.548;9.964;2023-01-16T08:04:28;5.80;99.90
28614;DHT22;15806;53.548;9.964;2023-01-16T08:06:08;5.90;99.90
28614;DHT22;15806;53.548;9.964;2023-01-16T08:07:49;5.80;99.90
28614;DHT22;15806;53.548;9.964;2023-01-16T08:09:30;5.80;99.90
28614;DHT22;15806;53.548;9.964;2023-01-16T08:11:10;5.70;99.90
28614;DHT22;15806;53.548;9.964;2023-01-16T08:12:51;5.80;99.90
28614;DHT22;15806;53.548;9.964;2023-01-16T08:14:31;5.80;99.90
28614;DHT22;15806;53.548;9.964;2023-01-16T08:16:12;5.80;99.90
28614;DHT22;15806;53.548;9.964;2023-01-16T08:17:52;5.70;99.90
28614;DHT22;15806;53.548;9.964;2023-01-16T08:19:34;5.70;99.90
28614;DHT22;15806;53.548;9.964;2023-01-16T08:21:18;5.70;99.90
28614;DHT22;15806;53.548;9.964;2023-01-16T08:22:59;5.70;99.90
28614;DHT22;15806;53.548;9.964;2023-01-16T08:24:39;5.70;99.90
28614;DHT22;15806;53.548;9.964;2023-01-16T08:26:20;5.70;99.90
28614;DHT22;15806;53.548;9.964;2023-01-16T08:28:01;5.70;99.90
28614;DHT22;15806;53.548;9.964;2023-01-16T08:29:41;5.80;99.90
28614;DHT22;15806;53.548;9.964;2023-01-16T08:31:22;5.90;99.90
28614;DHT22;15806;53.548;9.964;2023-01-16T08:33:02;6.00;99.90
28614;DHT22;15806;53.548;9.964;2023-01-16T08:34:43;5.80;99.90
28614;DHT22;15806;53.548;9.964;2023-01-16T08:36:23;5.80;99.90
28614;DHT22;15806;53.548;9.964;2023-01-16T08:38:04;5.70;99.90
28614;DHT22;15806;53.548;9.964;2023-01-16T08:39:44;5.70;99.90
28614;DHT22;15806;53.548;9.964;2023-01-16T08:41:25;5.70;99.90
28614;DHT22;15806;53.548;9.964;2023-01-16T08:43:06;5.70;99.90
28614;DHT22;15806;53.548;9.964;2023-01-16T08:44:48;5.80;99.90
28614;DHT22;15806;53.548;9.964;2023-01-16T08:46:29;5.70;99.90
28614;DHT22;15806;53.548;9.964;2023-01-16T08:48:10;5.80;99.90
28614;DHT22;15806;53.548;9.964;2023-01-16T08:49:51;5.80;99.90
28614;DHT22;15806;53.548;9.964;2023-01-16T08:51:32;5.90;99.90
28614;DHT22;15806;53.548;9.964;2023-01-16T08:53:12;5.80;99.90
28614;DHT22;15806;53.548;9.964;2023-01-16T08:54:54;5.80;99.90
28614;DHT22;15806;53.548;9.964;2023-01-16T08:56:35;5.80;99.90
28614;DHT22;15806;53.548;9.964;2023-01-16T08:58:15;5.80;99.90
28614;DHT22;15806;53.548;9.964;2023-01-16T08:59:56;5.70;99.90
28614;DHT22;15806;53.548;9.964;2023-01-16T09:01:38;5.70;99.90
28614;DHT22;15806;53.548;9.964;2023-01-16T09:03:19;5.80;99.90
28614;DHT22;15806;53.548;9.964;2023-01-16T09:04:59;5.80;99.90
28614;DHT22;15806;53.548;9.964;2023-01-16T09:06:41;5.70;99.90
28614;DHT22;15806;53.548;9.964;2023-01-16T09:08:21;5.70;99.90
28614;DHT22;15806;53.548;9.964;2023-01-16T09:10:02;5.80;99.90
28614;DHT22;15806;53.548;9.964;2023-01-16T09:11:42;5.80;99.90
28614;DHT22;15806;53.548;9.964;2023-01-16T09:13:23;5.70;99.90
28614;DHT22;15806;53.548;9.964;2023-01-16T09:15:04;5.70;99.90
28614;DHT22;15806;53.548;9.964;2023-01-16T09:16:45;5.60;99.90
28614;DHT22;15806;53.548;9.964;2023-01-16T09:18:26;5.70;99.90
28614;DHT22;15806;53.548;9.964;2023-01-16T09:20:07;5.80;99.90
28614;DHT22;15806;53.548;9.964;2023-01-16T09:21:48;5.80;99.90
28614;DHT22;15806;53.548;9.964;2023-01-16T09:23:28;5.70;99.90
28614;DHT22;15806;53.548;9.964;2023-01-16T09:25:09;5.70;99.90
28614;DHT22;15806;53.548;9.964;2023-01-16T09:26:50;5.80;99.90
28614;DHT22;15806;53.548;9.964;2023-01-16T09:28:30;5.70;99.90
28614;DHT22;15806;53.548;9.964;2023-01-16T09:30:11;5.70;99.90
28614;DHT22;15806;53.548;9.964;2023-01-16T09:31:52;5.70;99.90
28614;DHT22;15806;53.548;9.964;2023-01-16T09:33:33;5.70;99.90
28614;DHT22;15806;53.548;9.964;2023-01-16T09:35:14;5.80;99.90
28614;DHT22;15806;53.548;9.964;2023-01-16T09:36:54;5.70;99.90
28614;DHT22;15806;53.548;9.964;2023-01-16T09:38:35;5.70;99.90
28614;DHT22;15806;53.548;9.964;2023-01-16T09:40:21;5.70;99.90
28614;DHT22;15806;53.548;9.964;2023-01-16T09:44:04;5.80;99.90
28614;DHT22;15806;53.548;9.964;2023-01-16T09:45:47;5.80;99.90
28614;DHT22;15806;53.548;9.964;2023-01-16T09:47:32;5.80;99.90
28614;DHT22;15806;53.548;9.964;2023-01-16T09:49:29;5.80;99.90
28614;DHT22;15806;53.548;9.964;2023-01-16T09:51:16;5.80;99.90
28614;DHT22;15806;53.548;9.964;2023-01-16T09:52:59;5.70;99.90
28614;DHT22;15806;53.548;9.964;2023-01-16T09:54:44;5.80;99.90
28614;DHT22;15806;53.548;9.964;2023-01-16T09:56:33;5.90;99.90
28614;DHT22;15806;53.548;9.964;2023-01-16T09:58:18;5.90;99.90
28614;DHT22;15806;53.548;9.964;2023-01-16T10:00:02;5.90;99.90
28614;DHT22;15806;53.548;9.964;2023-01-16T10:01:47;5.90;99.90
28614;DHT22;15806;53.548;9.964;2023-01-16T10:03:30;5.90;99.90
28614;DHT22;15806;53.548;9.964;2023-01-16T10:05:11;6.00;99.90
28614;DHT22;15806;53.548;9.964;2023-01-16T10:09:14;5.90;99.90
28614;DHT22;15806;53.548;9.964;2023-01-16T10:11:28;5.90;99.90
28614;DHT22;15806;53.548;9.964;2023-01-16T10:13:43;6.00;99.90
28614;DHT22;15806;53.548;9.964;2023-01-16T10:18:00;6.10;99.90
28614;DHT22;15806;53.548;9.964;2023-01-16T10:22:06;6.00;99.90
28614;DHT22;15806;53.548;9.964;2023-01-16T10:28:02;6.00;99.90
28614;DHT22;15806;53.548;9.964;2023-01-16T10:29:53;6.00;99.90
28614;DHT22;15806;53.548;9.964;2023-01-16T10:31:44;5.90;99.90
28614;DHT22;15806;53.548;9.964;2023-01-16T10:33:40;6.00;99.90
28614;DHT22;15806;53.548;9.964;2023-01-16T10:35:31;6.10;99.90
28614;DHT22;15806;53.548;9.964;2023-01-16T10:37:13;6.20;99.90
28614;DHT22;15806;53.548;9.964;2023-01-16T10:38:56;6.20;99.90
28614;DHT22;15806;53.548;9.964;2023-01-16T10:40:37;6.20;99.90
28614;DHT22;15806;53.548;9.964;2023-01-16T10:42:26;6.20;99.90
28614;DHT22;15806;53.548;9.964;2023-01-16T10:44:40;6.20;99.90
28614;DHT22;15806;53.548;9.964;2023-01-16T10:46:33;6.10;99.90
28614;DHT22;15806;53.548;9.964;2023-01-16T10:48:15;6.20;99.90
28614;DHT22;15806;53.548;9.964;2023-01-16T10:49:56;6.20;99.90
28614;DHT22;15806;53.548;9.964;2023-01-16T10:51:37;6.20;99.90
28614;DHT22;15806;53.548;9.964;2023-01-16T10:53:17;6.20;99.90
28614;DHT22;15806;53.548;9.964;2023-01-16T10:54:58;6.20;99.90
28614;DHT22;15806;53.548;9.964;2023-01-16T10:56:40;6.30;99.90
28614;DHT22;15806;53.548;9.964;2023-01-16T11:00:35;6.30;99.90
28614;DHT22;15806;53.548;9.964;2023-01-16T11:02:39;6.40;99.90
28614;DHT22;15806;53.548;9.964;2023-01-16T11:04:33;6.30;99.90
28614;DHT22;15806;53.548;9.964;2023-01-16T11:06:22;6.40;99.90
28614;DHT22;15806;53.548;9.964;2023-01-16T11:08:09;6.40;99.90
28614;DHT22;15806;53.548;9.964;2023-01-16T11:09:50;6.30;99.90
28614;DHT22;15806;53.548;9.964;2023-01-16T11:11:34;6.40;99.90
28614;DHT22;15806;53.548;9.964;2023-01-16T11:13:23;6.30;99.90
28614;DHT22;15806;53.548;9.964;2023-01-16T11:15:20;6.40;99.90
28614;DHT22;15806;53.548;9.964;2023-01-16T11:19:21;6.30;99.90
28614;DHT22;15806;53.548;9.964;2023-01-16T11:21:22;6.30;99.90
28614;DHT22;15806;53.548;9.964;2023-01-16T11:23:14;6.50;99.90
28614;DHT22;15806;53.548;9.964;2023-01-16T11:24:58;6.50;99.90
28614;DHT22;15806;53.548;9.964;2023-01-16T11:26:40;6.40;99.90
28614;DHT22;15806;53.548;9.964;2023-01-16T11:28:27;6.40;99.90
28614;DHT22;15806;53.548;9.964;2023-01-16T11:30:19;6.40;99.90
28614;DHT22;15806;53.548;9.964;2023-01-16T11:32:05;6.50;99.90
28614;DHT22;15806;53.548;9.964;2023-01-16T11:34:10;6.50;99.90
28614;DHT22;15806;53.548;9.964;2023-01-16T11:35:57;6.60;99.90
28614;DHT22;15806;53.548;9.964;2023-01-16T11:37:39;6.50;99.90
28614;DHT22;15806;53.548;9.964;2023-01-16T11:39:24;6.50;99.90
28614;DHT22;15806;53.548;9.964;2023-01-16T11:41:06;6.50;99.90
28614;DHT22;15806;53.548;9.964;2023-01-16T11:42:57;6.50;99.90
28614;DHT22;15806;53.548;9.964;2023-01-16T11:44:40;6.60;99.90
28614;DHT22;15806;53.548;9.964;2023-01-16T11:46:40;6.60;99.90
28614;DHT22;15806;53.548;9.964;2023-01-16T11:48:22;6.50;99.90
28614;DHT22;15806;53.548;9.964;2023-01-16T11:50:31;6.40;99.90
28614;DHT22;15806;53.548;9.964;2023-01-16T11:52:14;6.50;99.90
28614;DHT22;15806;53.548;9.964;2023-01-16T11:53:57;6.50;99.90
28614;DHT22;15806;53.548;9.964;2023-01-16T11:55:44;6.50;99.90
28614;DHT22;15806;53.548;9.964;2023-01-16T12:04:20;6.60;99.90
28614;DHT22;15806;53.548;9.964;2023-01-16T12:06:24;6.60;99.90
28614;DHT22;15806;53.548;9.964;2023-01-16T12:10:50;6.80;99.90
28614;DHT22;15806;53.548;9.964;2023-01-16T12:16:24;7.00;99.90